Virgin, Utah
Current Conditions -  °F | °C
As of 12:55 PM on Friday 24 Oct 2014 (Local Time) from KAZC Reporting Station
Clear Clear  
Wind Chill: 78°   Ceiling: Unl
Heat Index: 78°   Visibility: 7mi
Dew Point: 38°   Wind: 7mph
Humidity: 24%   Direction: 140°SE
Pressure: 30.29"   Gusts: NA
Location:  37.21°N, 113.19°W
Report Text: KAZC 241855Z AUTO 14006KT 7SM CLR 25/04 A3029 RMK AO2 T02540036
Loading
Personal Weather Stations






























Interactive Weather Map
Tropical Storm Tracking
New forecast layout! Learn more

10-Day Weather Forecast

Advertisements
Track Severe Weather on mobile